createdAt,value
2023-07-26T00:01:05.681Z,39.10
2023-07-26T00:03:33.742Z,39.00
2023-07-26T00:06:02.953Z,38.70
2023-07-26T00:08:31.185Z,38.90
2023-07-26T00:11:01.249Z,38.90
2023-07-26T00:13:29.250Z,38.70
2023-07-26T00:15:57.248Z,38.50
2023-07-26T00:18:25.398Z,38.40
2023-07-26T00:20:53.400Z,38.40
2023-07-26T00:23:21.800Z,38.50
2023-07-26T00:25:49.785Z,38.50
2023-07-26T00:28:17.730Z,38.40
2023-07-26T00:30:45.663Z,38.10
2023-07-26T00:33:13.708Z,38.30
2023-07-26T00:35:43.078Z,38.30
2023-07-26T00:38:11.653Z,38.00
2023-07-26T00:40:41.108Z,38.10
2023-07-26T00:43:08.927Z,38.20
2023-07-26T00:45:40.382Z,38.20
2023-07-26T00:48:09.428Z,37.80
2023-07-26T00:50:42.071Z,37.70
2023-07-26T00:53:10.309Z,37.70
2023-07-26T00:55:38.161Z,37.90
2023-07-26T00:58:06.475Z,37.90
2023-07-26T01:00:34.550Z,37.80
2023-07-26T01:03:02.510Z,37.40
2023-07-26T01:05:40.737Z,37.40
2023-07-26T01:08:15.699Z,37.30
2023-07-26T01:11:03.802Z,37.30
2023-07-26T01:13:55.550Z,37.40
2023-07-26T01:16:23.988Z,36.90
2023-07-26T01:18:51.981Z,36.80
2023-07-26T01:21:20.031Z,36.80
2023-07-26T01:23:48.004Z,36.90
2023-07-26T01:26:16.082Z,36.90
2023-07-26T01:28:44.068Z,36.50
2023-07-26T01:31:13.151Z,36.30
2023-07-26T01:33:42.806Z,36.30
2023-07-26T01:36:12.351Z,36.30
2023-07-26T01:38:40.900Z,36.50
2023-07-26T01:41:09.330Z,36.80
2023-07-26T01:43:38.971Z,36.60
2023-07-26T01:46:07.963Z,36.80
2023-07-26T01:48:36.776Z,36.90
2023-07-26T01:51:04.847Z,37.00
2023-07-26T01:53:32.883Z,37.20
2023-07-26T01:56:04.429Z,37.20
2023-07-26T01:58:32.713Z,36.80
2023-07-26T02:01:01.657Z,36.70
2023-07-26T02:03:29.945Z,36.80
2023-07-26T02:05:57.805Z,36.90
2023-07-26T02:08:26.333Z,37.10
2023-07-26T02:10:54.268Z,37.20
2023-07-26T02:13:22.211Z,37.20
2023-07-26T02:15:50.283Z,36.90
2023-07-26T02:18:18.404Z,37.00
2023-07-26T02:20:46.279Z,37.20
2023-07-26T02:23:14.449Z,37.30
2023-07-26T02:25:42.342Z,37.40
2023-07-26T02:28:11.198Z,37.40
2023-07-26T02:30:39.173Z,37.10
2023-07-26T02:33:07.215Z,37.00
2023-07-26T02:35:35.149Z,37.20
2023-07-26T02:38:05.250Z,37.30
2023-07-26T02:40:33.335Z,37.40
2023-07-26T02:43:01.259Z,37.50
2023-07-26T02:45:30.078Z,37.20
2023-07-26T02:47:58.742Z,37.30
2023-07-26T02:50:26.730Z,37.40
2023-07-26T02:52:54.670Z,37.60
2023-07-26T02:55:22.633Z,37.60
2023-07-26T02:57:50.712Z,37.50
2023-07-26T03:00:18.853Z,37.00
2023-07-26T03:02:46.924Z,37.00
2023-07-26T03:05:15.161Z,37.10
2023-07-26T03:07:43.118Z,37.00
2023-07-26T03:10:11.531Z,37.00
2023-07-26T03:12:39.494Z,36.80
2023-07-26T03:15:08.020Z,36.40
2023-07-26T03:17:36.085Z,36.30
2023-07-26T03:20:04.784Z,36.30
2023-07-26T03:22:33.483Z,36.20
2023-07-26T03:25:01.547Z,36.20
2023-07-26T03:27:29.575Z,36.40
2023-07-26T03:29:57.565Z,36.00
2023-07-26T03:32:25.658Z,36.10
2023-07-26T03:34:53.618Z,36.40
2023-07-26T03:37:21.638Z,36.60
2023-07-26T03:39:49.791Z,36.90
2023-07-26T03:42:17.991Z,37.10
2023-07-26T03:44:46.044Z,37.20
2023-07-26T03:47:14.040Z,36.90
2023-07-26T03:49:41.997Z,36.60
2023-07-26T03:52:10.052Z,36.70
2023-07-26T03:54:38.155Z,37.00
2023-07-26T03:57:06.739Z,37.20
2023-07-26T03:59:35.040Z,37.30
2023-07-26T04:02:03.168Z,37.30
2023-07-26T04:04:31.280Z,37.40
2023-07-26T04:06:59.295Z,37.60
2023-07-26T04:09:27.596Z,37.50
2023-07-26T04:11:59.120Z,37.30
2023-07-26T04:14:27.272Z,37.30
2023-07-26T04:16:55.175Z,37.30
2023-07-26T04:19:23.304Z,37.30
2023-07-26T04:21:51.292Z,37.30
2023-07-26T04:24:19.510Z,36.90
2023-07-26T04:26:47.581Z,36.70
2023-07-26T04:29:15.696Z,36.60
2023-07-26T04:31:43.814Z,36.50
2023-07-26T04:34:14.014Z,36.50
2023-07-26T04:36:42.855Z,36.60
2023-07-26T04:39:11.083Z,36.70
2023-07-26T04:41:39.233Z,36.80
2023-07-26T04:44:07.234Z,36.80
2023-07-26T04:46:35.558Z,36.80
2023-07-26T04:49:04.286Z,36.80
2023-07-26T04:51:32.445Z,36.90
2023-07-26T04:54:03.675Z,37.00
2023-07-26T04:56:33.057Z,37.20
2023-07-26T04:59:01.330Z,37.30
2023-07-26T05:01:29.321Z,36.90
2023-07-26T05:03:57.340Z,37.00
2023-07-26T05:06:28.859Z,37.20
2023-07-26T05:08:57.094Z,37.20
2023-07-26T05:11:25.084Z,37.30
2023-07-26T05:13:53.576Z,37.40
2023-07-26T05:16:21.738Z,37.30
2023-07-26T05:18:49.892Z,36.90
2023-07-26T05:21:17.934Z,36.90
2023-07-26T05:23:45.981Z,37.00
2023-07-26T05:26:13.963Z,37.00
2023-07-26T05:28:41.957Z,37.20
2023-07-26T05:31:09.986Z,37.00
2023-07-26T05:33:37.984Z,37.00
2023-07-26T05:36:07.896Z,37.10
2023-07-26T05:38:35.981Z,37.20
2023-07-26T05:41:05.561Z,37.30
2023-07-26T05:43:34.384Z,37.40
2023-07-26T05:46:03.771Z,37.10
2023-07-26T05:48:32.587Z,37.30
2023-07-26T05:51:00.667Z,37.40
2023-07-26T05:53:28.560Z,37.60
2023-07-26T05:55:56.555Z,37.80
2023-07-26T05:58:24.564Z,37.90
2023-07-26T06:00:52.535Z,37.60
2023-07-26T06:03:23.956Z,37.70
2023-07-26T06:05:52.339Z,37.90
2023-07-26T06:08:20.632Z,38.10
2023-07-26T06:10:48.541Z,38.20
2023-07-26T06:13:17.612Z,38.20
2023-07-26T06:15:45.676Z,37.70
2023-07-26T06:18:13.650Z,37.80
2023-07-26T06:20:41.718Z,37.70
2023-07-26T06:23:09.750Z,37.10
2023-07-26T06:25:37.855Z,37.30
2023-07-26T06:28:05.905Z,36.80
2023-07-26T06:30:34.453Z,36.90
2023-07-26T06:33:03.242Z,37.20
2023-07-26T06:35:32.845Z,37.30
2023-07-26T06:38:00.770Z,37.30
2023-07-26T06:40:28.609Z,37.50
2023-07-26T06:42:56.614Z,37.60
2023-07-26T06:45:24.546Z,37.60
2023-07-26T06:47:52.713Z,37.40
2023-07-26T06:50:20.986Z,37.50
2023-07-26T06:52:50.089Z,37.40
2023-07-26T06:55:18.013Z,37.30
2023-07-26T06:57:46.099Z,37.50
2023-07-26T07:00:17.745Z,37.30
2023-07-26T07:02:47.163Z,37.10
2023-07-26T07:05:16.159Z,37.30
2023-07-26T07:07:44.458Z,37.30
2023-07-26T07:10:12.493Z,37.60
2023-07-26T07:12:40.474Z,37.80
2023-07-26T07:15:09.966Z,38.20
2023-07-26T07:17:37.980Z,38.40
2023-07-26T07:20:08.715Z,38.10
2023-07-26T07:22:37.245Z,38.20
2023-07-26T07:25:06.931Z,38.50
2023-07-26T07:27:35.040Z,38.60
2023-07-26T07:30:03.641Z,38.40
2023-07-26T07:32:31.693Z,38.50
2023-07-26T07:34:59.723Z,38.00
2023-07-26T07:37:28.582Z,37.90
2023-07-26T07:39:56.705Z,37.60
2023-07-26T07:42:24.793Z,37.60
2023-07-26T07:44:54.479Z,37.60
2023-07-26T07:47:23.167Z,37.30
2023-07-26T07:49:51.119Z,37.60
2023-07-26T07:52:20.949Z,37.60
2023-07-26T07:54:49.074Z,37.80
2023-07-26T07:57:19.043Z,38.00
2023-07-26T07:59:47.225Z,38.20
2023-07-26T08:02:15.113Z,38.20
2023-07-26T08:04:43.426Z,38.00
2023-07-26T08:07:11.834Z,37.80
2023-07-26T08:09:42.368Z,37.40
2023-07-26T08:12:10.573Z,37.10
2023-07-26T08:14:38.466Z,36.40
2023-07-26T08:17:06.823Z,36.10
2023-07-26T08:19:34.827Z,35.70
2023-07-26T08:22:02.857Z,35.30
2023-07-26T08:24:31.183Z,34.90
2023-07-26T08:27:00.524Z,34.90
2023-07-26T08:29:28.425Z,35.10
2023-07-26T08:31:56.557Z,35.10
2023-07-26T08:34:24.585Z,35.00
2023-07-26T08:36:52.624Z,34.90
2023-07-26T08:39:33.751Z,35.00
2023-07-26T08:42:05.964Z,35.20
2023-07-26T08:44:35.321Z,35.40
2023-07-26T08:47:06.275Z,35.20
2023-07-26T08:49:34.771Z,35.20
2023-07-26T08:52:05.024Z,35.00
2023-07-26T08:54:34.241Z,35.00
2023-07-26T08:57:02.527Z,35.40
2023-07-26T08:59:31.476Z,35.40
2023-07-26T09:02:04.180Z,35.20
2023-07-26T09:04:33.746Z,35.60
2023-07-26T09:07:08.254Z,35.90
2023-07-26T09:09:37.766Z,36.00
2023-07-26T09:12:06.300Z,36.10
2023-07-26T09:14:35.432Z,36.00
2023-07-26T09:17:05.752Z,36.20
2023-07-26T09:19:39.970Z,36.30
2023-07-26T09:22:10.746Z,36.00
2023-07-26T09:24:42.632Z,36.00
2023-07-26T09:27:13.499Z,36.10
2023-07-26T09:29:43.195Z,36.20
2023-07-26T09:32:11.379Z,36.20
2023-07-26T09:34:41.779Z,36.30
2023-07-26T09:37:24.715Z,36.40
2023-07-26T09:39:52.977Z,36.10
2023-07-26T09:42:21.177Z,36.10
2023-07-26T09:44:49.585Z,36.00
2023-07-26T09:47:17.854Z,35.90
2023-07-26T09:50:16.891Z,35.90
2023-07-26T09:52:44.446Z,36.10
2023-07-26T09:55:20.969Z,36.30
2023-07-26T09:57:52.281Z,36.20
2023-07-26T10:00:21.925Z,36.20
2023-07-26T10:02:58.401Z,35.90
2023-07-26T10:05:27.740Z,35.70
2023-07-26T10:07:57.842Z,35.60
2023-07-26T10:10:30.037Z,35.70
2023-07-26T10:13:00.374Z,35.80
2023-07-26T10:15:31.872Z,35.70
2023-07-26T10:18:00.809Z,36.00
2023-07-26T10:20:29.156Z,36.20
2023-07-26T10:23:04.011Z,36.20
2023-07-26T10:25:34.443Z,36.50
2023-07-26T10:28:06.169Z,36.40
2023-07-26T10:30:34.387Z,36.40
2023-07-26T10:33:02.751Z,36.40
2023-07-26T10:35:32.873Z,36.50
2023-07-26T10:38:04.103Z,36.50
2023-07-26T10:40:37.752Z,36.10
2023-07-26T10:43:18.748Z,36.00
2023-07-26T10:45:47.669Z,36.20
2023-07-26T10:48:32.426Z,36.60
2023-07-26T10:51:00.878Z,36.60
2023-07-26T10:53:38.487Z,36.90
2023-07-26T10:56:10.323Z,37.50
2023-07-26T10:58:48.666Z,38.10
2023-07-26T11:01:46.476Z,38.40
2023-07-26T11:04:20.534Z,38.60
2023-07-26T11:07:00.223Z,38.90
2023-07-26T11:09:29.352Z,38.90
2023-07-26T11:11:58.736Z,39.30
2023-07-26T11:14:28.647Z,39.10
2023-07-26T11:16:59.205Z,39.20
2023-07-26T11:19:28.865Z,39.20
2023-07-26T11:22:08.855Z,38.90
2023-07-26T11:24:36.999Z,39.10
2023-07-26T11:27:06.982Z,39.10
2023-07-26T11:29:35.495Z,39.10
2023-07-26T11:32:05.152Z,39.10
2023-07-26T11:34:33.357Z,39.40
2023-07-26T11:37:13.866Z,39.20
2023-07-26T11:39:41.980Z,39.30
2023-07-26T11:42:10.380Z,39.30
2023-07-26T11:44:38.471Z,39.30
2023-07-26T11:47:06.839Z,39.00
2023-07-26T11:49:35.791Z,38.50
2023-07-26T11:52:03.857Z,38.40
2023-07-26T11:54:32.394Z,38.10
2023-07-26T11:57:00.948Z,38.40
2023-07-26T11:59:30.083Z,38.10
2023-07-26T12:01:58.698Z,37.70
2023-07-26T12:04:26.767Z,37.20
2023-07-26T12:06:55.314Z,37.20
2023-07-26T12:09:23.691Z,37.50
2023-07-26T12:11:56.404Z,37.60
2023-07-26T12:14:25.124Z,37.60
2023-07-26T12:16:55.061Z,37.30
2023-07-26T12:19:27.102Z,37.30
2023-07-26T12:21:55.174Z,37.40
2023-07-26T12:24:24.771Z,37.50
2023-07-26T12:26:53.381Z,37.30
2023-07-26T12:29:29.405Z,37.00
2023-07-26T12:32:05.788Z,37.00
2023-07-26T12:34:36.727Z,36.80
2023-07-26T12:37:05.041Z,36.90
2023-07-26T12:39:33.135Z,36.90
2023-07-26T12:42:01.064Z,36.90
2023-07-26T12:44:29.354Z,36.80
2023-07-26T12:47:26.895Z,36.20
2023-07-26T12:49:45.364Z,36.10
2023-07-26T12:52:13.302Z,36.10
2023-07-26T12:54:41.417Z,36.20
2023-07-26T12:57:09.481Z,36.10
2023-07-26T12:59:37.634Z,36.10
2023-07-26T13:02:06.204Z,36.10
2023-07-26T13:04:34.400Z,36.00
2023-07-26T13:07:05.221Z,35.90
2023-07-26T13:09:33.262Z,35.90
2023-07-26T13:12:01.222Z,35.90
2023-07-26T13:14:29.215Z,35.90
2023-07-26T13:16:57.158Z,35.80
2023-07-26T13:19:25.181Z,35.40
2023-07-26T13:21:53.191Z,35.30
2023-07-26T13:24:21.399Z,35.20
2023-07-26T13:26:49.619Z,35.20
2023-07-26T13:29:17.734Z,35.40
2023-07-26T13:31:46.102Z,35.50
2023-07-26T13:34:14.078Z,35.60
2023-07-26T13:36:41.869Z,35.40
2023-07-26T13:39:14.233Z,35.40
2023-07-26T13:41:42.293Z,35.30
2023-07-26T13:44:10.473Z,35.10
2023-07-26T13:46:39.188Z,34.90
2023-07-26T13:49:07.868Z,34.60
2023-07-26T13:51:36.111Z,34.60
2023-07-26T13:54:04.212Z,34.30
2023-07-26T13:56:32.339Z,34.20
2023-07-26T13:59:01.313Z,34.10
2023-07-26T14:01:29.627Z,34.00
2023-07-26T14:03:57.533Z,34.00
2023-07-26T14:06:29.832Z,34.00
2023-07-26T14:08:58.858Z,34.00
2023-07-26T14:11:26.902Z,34.10
2023-07-26T14:13:57.905Z,34.10
2023-07-26T14:16:25.876Z,34.30
2023-07-26T14:18:55.094Z,34.30
2023-07-26T14:21:26.439Z,34.10
2023-07-26T14:23:54.329Z,34.10
2023-07-26T14:26:22.190Z,33.90
2023-07-26T14:28:50.201Z,34.00
2023-07-26T14:31:18.333Z,33.90
2023-07-26T14:33:47.106Z,33.80
2023-07-26T14:36:15.223Z,33.90
2023-07-26T14:38:44.333Z,34.00
2023-07-26T14:41:13.419Z,34.10
2023-07-26T14:43:43.772Z,33.90
2023-07-26T14:46:12.052Z,33.70
2023-07-26T14:48:40.525Z,33.70
2023-07-26T14:51:09.178Z,33.70
2023-07-26T14:53:38.177Z,33.50
2023-07-26T14:56:06.656Z,33.20
2023-07-26T14:58:34.598Z,33.20
2023-07-26T15:01:03.541Z,33.00
2023-07-26T15:03:32.053Z,32.90
2023-07-26T15:06:00.513Z,32.40
2023-07-26T15:08:28.816Z,32.30
2023-07-26T15:10:56.876Z,32.30
2023-07-26T15:13:24.954Z,32.50
2023-07-26T15:15:52.978Z,32.60
2023-07-26T15:18:21.172Z,32.90
2023-07-26T15:20:49.237Z,33.20
2023-07-26T15:25:48.011Z,33.90
2023-07-26T15:28:16.078Z,34.00
2023-07-26T15:30:44.758Z,34.20
2023-07-26T15:33:14.425Z,34.30
2023-07-26T15:35:44.579Z,34.50
2023-07-26T15:38:12.663Z,34.60
2023-07-26T15:48:17.199Z,36.10
2023-07-26T15:53:16.241Z,36.40
2023-07-26T15:55:44.562Z,36.80
2023-07-26T15:58:14.027Z,37.00
2023-07-26T16:00:42.403Z,37.10
2023-07-26T16:03:11.004Z,37.20
2023-07-26T16:05:39.731Z,36.80
2023-07-26T16:08:11.800Z,36.80
2023-07-26T16:10:42.633Z,36.40
2023-07-26T16:13:11.291Z,36.30
2023-07-26T16:16:23.381Z,36.60
2023-07-26T16:18:30.079Z,36.50
2023-07-26T16:23:30.695Z,37.20
2023-07-26T16:25:58.952Z,37.10
2023-07-26T16:28:27.112Z,36.90
2023-07-26T16:30:55.363Z,37.10
2023-07-26T16:33:23.587Z,37.50
2023-07-26T16:35:52.537Z,37.60
2023-07-26T16:38:21.335Z,37.30
2023-07-26T16:40:49.446Z,37.10
2023-07-26T16:43:18.295Z,37.20
2023-07-26T16:45:46.879Z,36.90
2023-07-26T16:48:15.430Z,36.90
2023-07-26T16:50:43.578Z,36.60
2023-07-26T16:53:12.403Z,36.90
2023-07-26T16:55:40.313Z,36.90
2023-07-26T16:58:08.510Z,36.90
2023-07-26T17:00:36.940Z,36.90
2023-07-26T17:03:05.647Z,37.10
2023-07-26T17:05:36.224Z,36.90
2023-07-26T17:08:04.530Z,37.00
2023-07-26T17:10:33.233Z,37.00
2023-07-26T17:13:01.659Z,37.40
2023-07-26T17:15:32.278Z,37.50
2023-07-26T17:18:00.609Z,37.30
2023-07-26T17:20:28.577Z,37.10
2023-07-26T17:22:56.817Z,36.90
2023-07-26T17:25:25.189Z,37.00
2023-07-26T17:27:53.938Z,37.30
2023-07-26T17:30:24.036Z,37.20
2023-07-26T17:32:52.180Z,37.40
2023-07-26T17:35:20.177Z,37.00
2023-07-26T17:37:48.265Z,36.90
2023-07-26T17:40:16.356Z,36.70
2023-07-26T17:42:44.624Z,36.60
2023-07-26T17:45:12.610Z,36.70
2023-07-26T17:47:40.858Z,36.60
2023-07-26T17:50:09.004Z,36.90
2023-07-26T17:52:37.170Z,36.50
2023-07-26T17:55:06.122Z,36.50
2023-07-26T17:57:34.258Z,36.20
2023-07-26T18:00:06.947Z,36.20
2023-07-26T18:02:35.122Z,36.00
2023-07-26T18:05:03.239Z,35.20
2023-07-26T18:07:31.665Z,34.70
2023-07-26T18:09:59.629Z,34.50
2023-07-26T18:12:27.941Z,34.30
2023-07-26T18:14:55.998Z,34.30
2023-07-26T18:17:24.315Z,33.80
2023-07-26T18:19:52.330Z,33.20
2023-07-26T18:22:20.729Z,33.20
2023-07-26T18:24:50.962Z,33.30
2023-07-26T18:27:19.192Z,33.00
2023-07-26T18:29:47.931Z,32.60
2023-07-26T18:32:16.867Z,32.50
2023-07-26T18:34:45.113Z,32.30
2023-07-26T18:37:13.215Z,31.80
2023-07-26T18:39:41.000Z,31.30
2023-07-26T18:42:09.252Z,30.60
2023-07-26T18:44:38.188Z,30.40
2023-07-26T18:47:09.703Z,30.00
2023-07-26T18:49:38.636Z,29.80
2023-07-26T18:52:07.171Z,29.60
2023-07-26T18:54:35.293Z,29.50
2023-07-26T18:57:03.384Z,29.30
2023-07-26T18:59:31.486Z,29.30
2023-07-26T19:01:59.657Z,29.10
2023-07-26T19:04:27.946Z,29.10
2023-07-26T19:06:55.937Z,29.10
2023-07-26T19:09:24.386Z,28.90
2023-07-26T19:11:52.452Z,28.80
2023-07-26T19:14:20.885Z,28.70
2023-07-26T19:16:48.981Z,28.70
2023-07-26T19:19:19.980Z,28.70
2023-07-26T19:21:48.031Z,28.80
2023-07-26T19:24:16.446Z,28.90
2023-07-26T19:26:44.757Z,29.00
2023-07-26T19:29:12.703Z,28.90
2023-07-26T19:31:41.326Z,28.90
2023-07-26T19:34:09.686Z,28.80
2023-07-26T19:36:37.834Z,28.80
2023-07-26T19:39:05.953Z,28.70
2023-07-26T19:41:34.305Z,28.70
2023-07-26T19:44:02.868Z,28.70
2023-07-26T19:46:30.990Z,28.70
2023-07-26T19:48:59.002Z,28.50
2023-07-26T19:51:28.150Z,27.90
2023-07-26T19:53:56.182Z,27.70
2023-07-26T19:56:24.600Z,27.60
2023-07-26T19:58:52.549Z,27.50
2023-07-26T20:01:22.281Z,27.60
2023-07-26T20:03:50.697Z,27.70
2023-07-26T20:06:19.023Z,27.90
2023-07-26T20:08:47.458Z,28.00
2023-07-26T20:11:15.518Z,28.10
2023-07-26T20:13:44.536Z,28.00
2023-07-26T20:16:12.638Z,28.00
2023-07-26T20:18:41.164Z,28.00
2023-07-26T20:21:09.810Z,28.00
2023-07-26T20:23:37.927Z,28.00
2023-07-26T20:26:06.108Z,28.00
2023-07-26T20:28:34.152Z,28.10
2023-07-26T20:31:05.338Z,28.20
2023-07-26T20:33:33.598Z,28.30
2023-07-26T20:36:04.916Z,28.40
2023-07-26T20:38:32.863Z,28.40
2023-07-26T20:41:00.847Z,28.50
2023-07-26T20:43:28.992Z,28.50
2023-07-26T20:45:57.140Z,28.40
2023-07-26T20:48:25.313Z,28.50
2023-07-26T20:50:54.639Z,28.50
2023-07-26T20:53:23.790Z,28.40
2023-07-26T20:55:52.951Z,28.40
2023-07-26T20:58:20.994Z,28.30
2023-07-26T21:00:52.603Z,28.10
2023-07-26T21:03:21.370Z,28.00
2023-07-26T21:05:49.710Z,28.00
2023-07-26T21:08:19.026Z,28.00
2023-07-26T21:10:47.319Z,27.90
2023-07-26T21:13:15.810Z,27.90
2023-07-26T21:15:43.813Z,28.00
2023-07-26T21:18:12.026Z,28.00
2023-07-26T21:20:41.896Z,28.00
2023-07-26T21:23:10.395Z,28.00
2023-07-26T21:25:38.341Z,28.00
2023-07-26T21:28:06.383Z,28.00
2023-07-26T21:30:34.498Z,27.80
2023-07-26T21:33:02.573Z,27.80
2023-07-26T21:35:30.736Z,27.60
2023-07-26T21:37:59.318Z,27.40
2023-07-26T21:40:27.132Z,27.20
2023-07-26T21:42:55.122Z,27.20
2023-07-26T21:45:23.401Z,26.90
2023-07-26T21:47:51.783Z,26.70
2023-07-26T21:50:19.916Z,26.30
2023-07-26T21:52:48.360Z,26.20
2023-07-26T21:55:16.420Z,26.10
2023-07-26T21:57:44.540Z,26.00
2023-07-26T22:00:13.462Z,25.90
2023-07-26T22:02:43.086Z,26.00
2023-07-26T22:05:12.036Z,26.00
2023-07-26T22:07:40.065Z,25.80
2023-07-26T22:10:10.061Z,25.50
2023-07-26T22:12:40.127Z,25.30
2023-07-26T22:15:10.304Z,25.30
2023-07-26T22:17:40.542Z,25.20
2023-07-26T22:20:12.581Z,25.20
2023-07-26T22:22:42.321Z,25.40
2023-07-26T22:25:14.606Z,25.50
2023-07-26T22:27:44.590Z,25.60
2023-07-26T22:30:14.074Z,25.80
2023-07-26T22:32:43.473Z,26.00
2023-07-26T22:35:13.714Z,26.10
2023-07-26T22:37:45.789Z,26.10
2023-07-26T22:40:15.732Z,26.30
2023-07-26T22:42:43.878Z,26.30
2023-07-26T22:45:15.522Z,26.40
2023-07-26T22:47:45.306Z,26.40
2023-07-26T22:50:13.751Z,26.40
2023-07-26T22:52:43.196Z,26.40
2023-07-26T22:55:11.814Z,26.40
2023-07-26T22:57:39.808Z,26.40
2023-07-26T23:00:09.233Z,26.40
2023-07-26T23:02:37.494Z,26.30
2023-07-26T23:05:06.620Z,26.30
2023-07-26T23:07:34.564Z,26.30
2023-07-26T23:10:02.758Z,26.30
2023-07-26T23:12:32.685Z,26.30
2023-07-26T23:15:00.945Z,26.30
2023-07-26T23:17:28.884Z,26.30
2023-07-26T23:19:57.097Z,26.20
2023-07-26T23:22:26.357Z,26.20
2023-07-26T23:24:54.535Z,26.20
2023-07-26T23:27:22.549Z,26.20
2023-07-26T23:29:51.143Z,26.10
2023-07-26T23:32:18.887Z,26.10
2023-07-26T23:34:47.257Z,26.10
2023-07-26T23:37:15.113Z,26.10
2023-07-26T23:39:43.183Z,26.10
2023-07-26T23:42:14.390Z,26.10
2023-07-26T23:44:42.455Z,26.10
2023-07-26T23:47:10.693Z,26.10
2023-07-26T23:49:39.271Z,26.00
2023-07-26T23:52:07.565Z,25.90
2023-07-26T23:54:35.514Z,25.80
2023-07-26T23:57:04.138Z,25.70
2023-07-26T23:59:32.341Z,25.70
